Wetterdaten: aktuell Dienstag, 30.05.2023 23:10
Datum Zeit Temp. A. Feuchte A. Luftdruck Regen Wind Richtung Richtung Windben
30.05.2023 23:10 13,5 C 73 % 1020,7 hPa 0,0 l/m 0,0 km/h N 354 0,0 km/h
30.05.2023 23:05 13,4 C 73 % 1020,7 hPa 0,0 l/m 0,0 km/h N 353 1,6 km/h
30.05.2023 23:00 13,5 C 73 % 1020,6 hPa 0,0 l/m 0,0 km/h N 357 0,0 km/h
30.05.2023 22:55 13,6 C 73 % 1020,6 hPa 0,0 l/m 0,0 km/h N-NW 348 0,0 km/h
30.05.2023 22:50 13,7 C 72 % 1020,5 hPa 0,0 l/m 0,0 km/h N-NW 348 0,0 km/h
30.05.2023 22:45 13,8 C 72 % 1020,6 hPa 0,0 l/m 0,6 km/h N 7 8,0 km/h
30.05.2023 22:40 13,8 C 72 % 1020,5 hPa 0,0 l/m 0,0 km/h N 359 0,0 km/h
30.05.2023 22:35 13,9 C 71 % 1020,5 hPa 0,0 l/m 0,0 km/h N 358 0,0 km/h
30.05.2023 22:30 13,8 C 72 % 1020,4 hPa 0,0 l/m 0,0 km/h N 354 0,0 km/h
30.05.2023 22:25 13,9 C 72 % 1020,5 hPa 0,0 l/m 0,0 km/h N-NW 348 0,0 km/h
30.05.2023 22:20 14,0 C 71 % 1020,4 hPa 0,0 l/m 0,0 km/h N-NO 12 0,0 km/h
30.05.2023 22:15 14,1 C 72 % 1020,4 hPa 0,0 l/m 0,0 km/h N 354 0,0 km/h
30.05.2023 22:10 14,2 C 71 % 1020,3 hPa 0,0 l/m 0,0 km/h N 350 0,0 km/h
30.05.2023 22:05 14,4 C 70 % 1020,3 hPa 0,0 l/m 0,0 km/h N 354 0,0 km/h
30.05.2023 22:00 14,6 C 69 % 1020,3 hPa 0,0 l/m 0,2 km/h N 7 8,0 km/h
30.05.2023 21:55 14,8 C 69 % 1020,2 hPa 0,0 l/m 0,0 km/h N 351 1,6 km/h
30.05.2023 21:50 15,2 C 68 % 1020,2 hPa 0,0 l/m 0,8 km/h N 2 14,5 km/h
30.05.2023 21:45 15,5 C 67 % 1020,1 hPa 0,0 l/m 0,6 km/h N 352 9,7 km/h
30.05.2023 21:40 15,6 C 66 % 1020,1 hPa 0,0 l/m 0,0 km/h N 353 0,0 km/h
30.05.2023 21:35 15,8 C 67 % 1020,1 hPa 0,0 l/m 0,0 km/h N 359 0,0 km/h
30.05.2023 21:30 16,2 C 66 % 1020,0 hPa 0,0 l/m 0,0 km/h N-NO 17 0,0 km/h
30.05.2023 21:25 16,3 C 64 % 1019,8 hPa 0,0 l/m 0,0 km/h N 2 0,0 km/h
30.05.2023 21:20 16,4 C 64 % 1019,8 hPa 0,0 l/m 0,0 km/h N-NO 17 0,0 km/h
30.05.2023 21:15 16,3 C 65 % 1019,7 hPa 0,0 l/m 0,0 km/h N-NO 17 0,0 km/h
30.05.2023 21:10 16,3 C 67 % 1019,6 hPa 0,0 l/m 0,0 km/h NO 38 0,0 km/h
30.05.2023 21:05 16,3 C 66 % 1019,5 hPa 0,0 l/m 0,0 km/h N-NO 17 0,0 km/h
30.05.2023 21:00 16,4 C 67 % 1019,5 hPa 0,0 l/m 0,0 km/h N 360 0,0 km/h
30.05.2023 20:55 16,7 C 67 % 1019,4 hPa 0,0 l/m 0,0 km/h N 356 0,0 km/h
30.05.2023 20:50 16,8 C 65 % 1019,4 hPa 0,0 l/m 0,0 km/h N 7 0,0 km/h
30.05.2023 20:45 16,8 C 65 % 1019,2 hPa 0,0 l/m 0,0 km/h N 7 0,0 km/h
30.05.2023 20:40 16,8 C 68 % 1019,1 hPa 0,0 l/m 0,0 km/h NW 320 0,0 km/h
30.05.2023 20:35 16,9 C 67 % 1019,1 hPa 0,0 l/m 0,0 km/h N-NO 27 1,6 km/h
30.05.2023 20:30 17,2 C 66 % 1019,0 hPa 0,0 l/m 0,0 km/h N-NW 331 0,0 km/h
30.05.2023 20:25 17,3 C 63 % 1018,9 hPa 0,0 l/m 0,0 km/h N-NW 328 0,0 km/h
30.05.2023 20:20 17,3 C 62 % 1018,9 hPa 0,0 l/m 0,0 km/h N-NW 333 0,0 km/h
30.05.2023 20:15 17,2 C 63 % 1018,8 hPa 0,0 l/m 0,0 km/h N-NW 346 0,0 km/h
30.05.2023 20:10 17,4 C 64 % 1018,8 hPa 0,0 l/m 0,0 km/h N-NW 345 0,0 km/h
30.05.2023 20:05 17,7 C 62 % 1018,7 hPa 0,0 l/m 0,0 km/h N 7 0,0 km/h
30.05.2023 20:00 18,1 C 61 % 1018,7 hPa 0,0 l/m 0,0 km/h N-NW 345 0,0 km/h
30.05.2023 19:55 18,7 C 59 % 1018,6 hPa 0,0 l/m 0,0 km/h N-NO 27 0,0 km/h
30.05.2023 19:50 18,8 C 56 % 1018,6 hPa 0,0 l/m 0,0 km/h W-SW 256 0,0 km/h
30.05.2023 19:45 19,2 C 55 % 1018,5 hPa 0,0 l/m 0,0 km/h W-SW 256 0,0 km/h
30.05.2023 19:40 19,3 C 53 % 1018,4 hPa 0,0 l/m 0,0 km/h W-SW 256 0,0 km/h
30.05.2023 19:35 19,6 C 52 % 1018,3 hPa 0,0 l/m 0,0 km/h W-SW 246 0,0 km/h
30.05.2023 19:30 19,8 C 52 % 1018,2 hPa 0,0 l/m 0,0 km/h SW 225 0,0 km/h
30.05.2023 19:25 20,1 C 52 % 1018,3 hPa 0,0 l/m 0,0 km/h SW 225 0,0 km/h
30.05.2023 19:20 20,2 C 49 % 1018,2 hPa 0,0 l/m 0,0 km/h SW 225 0,0 km/h
30.05.2023 19:15 20,4 C 49 % 1018,1 hPa 0,0 l/m 0,0 km/h S-SW 206 3,2 km/h
30.05.2023 19:10 20,8 C 48 % 1018,0 hPa 0,0 l/m 0,0 km/h W-SW 252 0,0 km/h
30.05.2023 19:05 21,3 C 48 % 1017,9 hPa 0,0 l/m 0,0 km/h N-NW 333 0,0 km/h
30.05.2023 19:00 21,6 C 46 % 1017,9 hPa 0,0 l/m 0,0 km/h NW 306 0,0 km/h
30.05.2023 18:55 21,6 C 46 % 1017,8 hPa 0,0 l/m 0,1 km/h S-SW 210 1,6 km/h
30.05.2023 18:50 21,7 C 47 % 1017,7 hPa 0,0 l/m 0,0 km/h S-SW 198 0,0 km/h
30.05.2023 18:45 21,7 C 45 % 1017,7 hPa 0,0 l/m 0,0 km/h SW 230 0,0 km/h
30.05.2023 18:40 21,8 C 47 % 1017,6 hPa 0,0 l/m 0,0 km/h S-SW 196 0,0 km/h
30.05.2023 18:35 21,8 C 46 % 1017,6 hPa 0,0 l/m 0,0 km/h SO 140 0,0 km/h
30.05.2023 18:30 22,0 C 46 % 1017,5 hPa 0,0 l/m 0,0 km/h S 185 0,0 km/h
30.05.2023 18:25 22,2 C 50 % 1017,5 hPa 0,0 l/m 0,0 km/h O-SO 119 0,0 km/h
30.05.2023 18:20 22,3 C 50 % 1017,5 hPa 0,0 l/m 0,0 km/h W-SW 250 0,0 km/h
30.05.2023 18:15 22,2 C 44 % 1017,4 hPa 0,0 l/m 0,0 km/h W-SW 250 0,0 km/h
30.05.2023 18:10 22,2 C 47 % 1017,4 hPa 0,0 l/m 0,0 km/h NW 309 0,0 km/h
30.05.2023 18:05 22,1 C 45 % 1017,4 hPa 0,0 l/m 0,0 km/h O-SO 118 0,0 km/h
30.05.2023 18:00 22,1 C 52 % 1017,3 hPa 0,0 l/m 0,0 km/h SO 144 0,0 km/h
30.05.2023 17:55 21,8 C 52 % 1017,3 hPa 0,0 l/m 0,0 km/h SW 231 0,0 km/h
30.05.2023 17:50 21,4 C 49 % 1017,4 hPa 0,0 l/m 0,0 km/h W 273 0,0 km/h
30.05.2023 17:45 21,2 C 49 % 1017,4 hPa 0,0 l/m 0,0 km/h S-SW 212 0,0 km/h
30.05.2023 17:40 21,2 C 47 % 1017,4 hPa 0,0 l/m 0,0 km/h SO 146 0,0 km/h
30.05.2023 17:35 21,4 C 50 % 1017,4 hPa 0,0 l/m 0,0 km/h W-SW 248 0,0 km/h
30.05.2023 17:30 21,6 C 51 % 1017,5 hPa 0,0 l/m 0,0 km/h O 95 0,0 km/h
30.05.2023 17:25 21,6 C 45 % 1017,5 hPa 0,0 l/m 0,0 km/h O 95 0,0 km/h
30.05.2023 17:20 21,4 C 50 % 1017,5 hPa 0,0 l/m 0,0 km/h N 352 0,0 km/h
30.05.2023 17:15 21,4 C 47 % 1017,5 hPa 0,0 l/m 0,0 km/h NO 47 0,0 km/h
30.05.2023 17:10 21,4 C 45 % 1017,5 hPa 0,0 l/m 0,0 km/h NO 50 0,0 km/h
30.05.2023 17:05 21,7 C 50 % 1017,5 hPa 0,0 l/m 0,0 km/h NW 306 0,0 km/h
30.05.2023 17:00 21,7 C 45 % 1017,4 hPa 0,0 l/m 0,0 km/h N-NO 31 0,0 km/h
30.05.2023 16:55 21,8 C 46 % 1017,4 hPa 0,0 l/m 0,0 km/h S-SO 158 0,0 km/h
30.05.2023 16:50 22,2 C 45 % 1017,4 hPa 0,0 l/m 0,0 km/h S-SW 210 1,6 km/h
30.05.2023 16:45 22,6 C 46 % 1017,4 hPa 0,0 l/m 0,0 km/h S-SW 193 0,0 km/h
30.05.2023 16:40 23,0 C 43 % 1017,5 hPa 0,0 l/m 0,0 km/h O-SO 122 0,0 km/h
30.05.2023 16:35 23,1 C 48 % 1017,3 hPa 0,0 l/m 0,0 km/h W 278 0,0 km/h
30.05.2023 16:30 23,1 C 46 % 1017,2 hPa 0,0 l/m 0,0 km/h SW 217 0,0 km/h
30.05.2023 16:25 23,1 C 47 % 1017,2 hPa 0,0 l/m 0,0 km/h S 188 0,0 km/h
30.05.2023 16:20 23,2 C 45 % 1017,3 hPa 0,0 l/m 0,0 km/h S-SW 192 0,0 km/h
30.05.2023 16:15 23,2 C 45 % 1017,2 hPa 0,0 l/m 0,0 km/h S-SW 206 1,6 km/h
30.05.2023 16:10 23,1 C 48 % 1017,4 hPa 0,0 l/m 0,0 km/h SW 223 0,0 km/h
30.05.2023 16:05 22,9 C 47 % 1017,3 hPa 0,0 l/m 0,0 km/h S-SO 148 0,0 km/h
30.05.2023 16:00 22,8 C 48 % 1017,4 hPa 0,0 l/m 0,0 km/h SW 226 1,6 km/h
30.05.2023 15:55 22,8 C 47 % 1017,4 hPa 0,0 l/m 0,0 km/h S-SW 207 1,6 km/h
30.05.2023 15:50 22,8 C 45 % 1017,4 hPa 0,0 l/m 1,1 km/h SW 217 16,1 km/h
30.05.2023 15:45 22,8 C 51 % 1017,4 hPa 0,0 l/m 0,0 km/h SW 215 0,0 km/h
30.05.2023 15:40 22,3 C 53 % 1017,5 hPa 0,0 l/m 0,0 km/h SW 227 0,0 km/h
30.05.2023 15:35 21,7 C 55 % 1017,6 hPa 0,0 l/m 0,0 km/h N-NW 333 0,0 km/h
30.05.2023 15:30 21,5 C 53 % 1017,6 hPa 0,0 l/m 0,0 km/h W-SW 238 0,0 km/h
30.05.2023 15:25 21,5 C 46 % 1017,7 hPa 0,0 l/m 0,0 km/h W 273 0,0 km/h
30.05.2023 15:20 21,6 C 48 % 1017,8 hPa 0,0 l/m 0,0 km/h N-NO 25 0,0 km/h
30.05.2023 15:15 21,4 C 53 % 1017,8 hPa 0,0 l/m 0,0 km/h S-SW 208 0,0 km/h
30.05.2023 15:10 21,4 C 47 % 1017,8 hPa 0,0 l/m 0,0 km/h S-SO 150 0,0 km/h
_ Min-Zeit 05:15 13:55 16:15 - 00:00 - - 00:00
Minimum _ 9,8 C 41 % 1017,2 hPa - 0,0 km/h - - 0,0 km/h
_ Max-Zeit 13:50 04:45 23:05 00:00 10:15 - - 10:15
Maximum _ 23,4 C 82 % 1020,7 hPa 0,0 l/m 21,2 km/h
N-NW
- - 29,0 km/h
N-NW
Durchschnitt _ 17,2 C 62 % 1018,1 hPa #0,0 l/m 1,5 km/h N - 3,7 km/h